Time;durP1;ratioP1;P1;durP2;ratioP2;P2;SDS_P1;SDS_P2;PMS_P1;PMS_P2;Temp;Humidity;BMP_temperature;BMP_pressure;BME280_temperature;BME280_humidity;BME280_pressure;Samples;Min_cycle;Max_cycle;Signal;HPM_P1;HPM_P2
2022/04/04 00:01:55;;;;;;;12.70;8.40;;;;;;;0.41;75.41;101101.17;107320;1249;70277;-70
2022/04/04 00:04:24;;;;;;;11.60;8.30;;;;;;;0.42;75.15;101105.96;107449;1248;69059;-69
2022/04/04 00:06:53;;;;;;;12.10;8.30;;;;;;;0.39;75.01;101113.55;107419;1249;70206;-70
2022/04/04 00:09:22;;;;;;;12.90;8.10;;;;;;;0.38;75.18;101112.56;107409;1249;59575;-70
2022/04/04 00:11:51;;;;;;;13.30;8.10;;;;;;;0.38;75.10;101119.41;107444;1249;59468;-71
2022/04/04 00:14:20;;;;;;;14.80;9.00;;;;;;;0.40;75.29;101120.39;107326;1250;73302;-71
2022/04/04 00:16:49;;;;;;;9.00;6.10;;;;;;;0.40;75.34;101125.19;107265;1249;72177;-70
2022/04/04 00:19:18;;;;;;;13.90;8.00;;;;;;;0.40;75.02;101126.04;107448;1250;68371;-71
2022/04/04 00:21:47;;;;;;;14.20;8.30;;;;;;;0.39;74.77;101124.19;107331;1248;73341;-71
2022/04/04 00:24:16;;;;;;;13.10;8.80;;;;;;;0.34;74.64;101131.67;107321;1250;59528;-70
2022/04/04 00:26:46;;;;;;;11.10;6.70;;;;;;;0.31;75.12;101132.09;107380;1250;60046;-68
2022/04/04 00:29:15;;;;;;;13.10;8.80;;;;;;;0.28;74.98;101134.54;107315;1250;72489;-70
2022/04/04 00:31:45;;;;;;;13.40;7.80;;;;;;;0.28;75.42;101132.48;107391;1250;72487;-71
2022/04/04 00:34:14;;;;;;;14.40;9.50;;;;;;;0.27;75.51;101139.02;107358;1250;71062;-68
2022/04/04 00:36:43;;;;;;;13.80;8.20;;;;;;;0.24;75.50;101135.33;107308;1249;73841;-72
2022/04/04 00:39:19;;;;;;;15.00;8.00;;;;;;;0.24;75.48;101136.19;107349;1249;60998;-73
2022/04/04 00:41:48;;;;;;;13.20;8.50;;;;;;;0.22;75.59;101137.41;107341;1249;59600;-71
2022/04/04 00:44:17;;;;;;;11.70;8.70;;;;;;;0.23;75.78;101140.66;107407;1249;72138;-70
2022/04/04 00:46:46;;;;;;;12.20;7.60;;;;;;;0.23;75.86;101136.89;107402;1250;72242;-68
2022/04/04 00:49:15;;;;;;;13.60;8.40;;;;;;;0.23;75.68;101140.48;107427;1250;71778;-71
2022/04/04 00:51:44;;;;;;;14.10;8.90;;;;;;;0.21;75.18;101138.30;107586;1250;72187;-67
2022/04/04 00:54:14;;;;;;;15.40;8.10;;;;;;;0.25;75.32;101137.54;107668;1250;60001;-69
2022/04/04 00:56:46;;;;;;;12.80;8.30;;;;;;;0.26;75.47;101140.58;107638;1250;60456;-72
2022/04/04 00:59:18;;;;;;;14.10;9.10;;;;;;;0.26;75.54;101141.61;107550;1250;72300;-69
2022/04/04 01:01:47;;;;;;;11.30;7.70;;;;;;;0.25;75.69;101147.29;107305;1250;70811;-71
2022/04/04 01:04:17;;;;;;;13.60;8.50;;;;;;;0.23;75.71;101151.62;107368;1249;70954;-68
2022/04/04 01:06:46;;;;;;;14.30;8.60;;;;;;;0.21;75.55;101151.15;107398;1249;72697;-71
2022/04/04 01:09:15;;;;;;;14.60;8.20;;;;;;;0.19;75.74;101153.76;107365;1249;62757;-71
2022/04/04 01:12:10;;;;;;;13.20;8.50;;;;;;;0.18;75.73;101156.70;107223;1250;62459;-71
2022/04/04 01:14:45;;;;;;;12.20;7.20;;;;;;;0.12;75.69;101152.20;107355;1249;72941;-73
2022/04/04 01:17:25;;;;;;;6.70;4.30;;;;;;;0.08;75.19;101157.79;107316;1249;73194;-73
2022/04/04 01:19:56;;;;;;;9.80;5.50;;;;;;;0.00;74.91;101158.63;107315;1249;68523;-71
2022/04/04 01:22:25;;;;;;;16.30;8.20;;;;;;;-0.06;74.89;101165.79;107176;1250;74939;-71
2022/04/04 01:24:53;;;;;;;13.00;7.40;;;;;;;-0.12;74.79;101168.14;107293;1249;62690;-71
2022/04/04 01:27:22;;;;;;;12.00;7.70;;;;;;;-0.15;74.70;101173.70;107293;1250;60914;-71
2022/04/04 01:29:51;;;;;;;12.10;7.40;;;;;;;-0.16;74.56;101173.55;107253;1250;75274;-71
2022/04/04 01:32:20;;;;;;;12.90;8.10;;;;;;;-0.17;74.31;101177.66;107275;1250;69618;-71
2022/04/04 01:34:49;;;;;;;11.80;7.80;;;;;;;-0.21;74.03;101170.89;107313;1250;68186;-71
2022/04/04 01:37:18;;;;;;;13.40;7.30;;;;;;;-0.23;74.12;101172.32;107284;1250;71584;-70
2022/04/04 01:39:47;;;;;;;7.80;5.70;;;;;;;-0.24;73.38;101171.45;107306;1250;61036;-71
2022/04/04 01:42:16;;;;;;;13.30;8.60;;;;;;;-0.22;72.88;101176.23;107335;1250;59929;-68
2022/04/04 01:44:45;;;;;;;15.40;7.80;;;;;;;-0.19;73.57;101181.81;107295;1250;74737;-70
2022/04/04 01:47:14;;;;;;;11.60;7.80;;;;;;;-0.20;72.86;101180.30;107343;1250;72635;-68
2022/04/04 01:49:43;;;;;;;10.40;6.00;;;;;;;-0.22;73.19;101180.00;107365;1250;72020;-67
2022/04/04 01:52:12;;;;;;;11.60;7.50;;;;;;;-0.23;72.80;101181.73;107301;1248;72873;-70
2022/04/04 01:54:41;;;;;;;11.70;7.50;;;;;;;-0.26;72.81;101182.14;107241;1250;61475;-70
2022/04/04 01:57:10;;;;;;;8.20;5.00;;;;;;;-0.28;73.17;101185.41;107259;1250;61116;-71
2022/04/04 01:59:39;;;;;;;11.00;7.50;;;;;;;-0.26;73.06;101183.49;107290;1250;72559;-70
2022/04/04 02:02:08;;;;;;;11.70;7.70;;;;;;;-0.27;73.39;101187.63;107360;1250;71430;-73
2022/04/04 02:04:37;;;;;;;11.70;7.90;;;;;;;-0.25;73.72;101186.04;107310;1250;69663;-72
2022/04/04 02:07:07;;;;;;;12.60;7.80;;;;;;;-0.32;73.33;101179.16;107308;1250;71991;-71
2022/04/04 02:09:37;;;;;;;13.60;7.90;;;;;;;-0.27;73.61;101190.19;107409;1250;61698;-72
2022/04/04 02:12:09;;;;;;;11.90;8.10;;;;;;;-0.30;73.18;101196.41;107485;1250;62008;-71
2022/04/04 02:14:38;;;;;;;15.30;7.90;;;;;;;-0.32;73.30;101195.43;107316;1248;72210;-67
2022/04/04 02:17:08;;;;;;;15.40;7.70;;;;;;;-0.32;73.65;101196.80;107232;1250;70145;-68
2022/04/04 02:19:37;;;;;;;11.80;7.90;;;;;;;-0.30;73.32;101199.30;107397;1249;70594;-67
2022/04/04 02:22:06;;;;;;;11.90;6.80;;;;;;;-0.28;73.49;101203.91;107336;1250;71878;-69
2022/04/04 02:24:36;;;;;;;16.60;7.80;;;;;;;-0.28;73.79;101204.92;107179;1250;59946;-70
2022/04/04 02:27:05;;;;;;;11.90;7.40;;;;;;;-0.27;73.22;101205.27;107158;1250;59825;-69
2022/04/04 02:29:34;;;;;;;9.80;6.10;;;;;;;-0.21;73.83;101203.44;107187;1250;74757;-72
2022/04/04 02:32:03;;;;;;;13.00;7.70;;;;;;;-0.18;72.85;101205.74;107170;1250;73232;-72
2022/04/04 02:34:32;;;;;;;10.50;7.90;;;;;;;-0.17;72.58;101207.98;107232;1250;67833;-71
2022/04/04 02:37:01;;;;;;;13.10;8.40;;;;;;;-0.16;72.52;101206.40;107258;1249;72384;-71
2022/04/04 02:39:30;;;;;;;7.90;5.70;;;;;;;-0.12;72.01;101209.40;107174;1250;61034;-73
2022/04/04 02:41:59;;;;;;;12.00;7.60;;;;;;;-0.12;71.06;101215.05;107261;1250;60122;-72
2022/04/04 02:44:28;;;;;;;10.80;7.50;;;;;;;-0.10;71.40;101214.84;107180;1250;73525;-68
2022/04/04 02:46:57;;;;;;;9.80;7.00;;;;;;;-0.06;71.00;101219.20;107144;1250;70698;-69
2022/04/04 02:49:29;;;;;;;10.60;6.70;;;;;;;-0.05;71.09;101213.54;107021;1249;68896;-70
2022/04/04 02:51:58;;;;;;;9.50;6.90;;;;;;;-0.06;71.17;101212.88;107176;1250;73006;-72
2022/04/04 02:54:27;;;;;;;14.20;8.30;;;;;;;-0.04;71.62;101216.44;106988;1250;59569;-68
2022/04/04 02:56:56;;;;;;;11.40;6.40;;;;;;;-0.00;70.45;101222.86;107135;1250;59458;-71
2022/04/04 02:59:25;;;;;;;13.40;7.00;;;;;;;0.04;69.96;101221.92;106696;1250;608799;-70
2022/04/04 03:01:54;;;;;;;13.40;5.90;;;;;;;0.06;69.24;101222.57;107083;1250;69919;-72
2022/04/04 03:04:23;;;;;;;11.10;7.40;;;;;;;0.05;68.43;101230.30;107269;1250;71330;-73
2022/04/04 03:06:52;;;;;;;11.80;7.00;;;;;;;0.06;69.27;101234.73;107142;1250;72822;-70
2022/04/04 03:09:21;;;;;;;13.00;6.90;;;;;;;0.03;68.86;101234.27;107110;1250;59661;-70
2022/04/04 03:11:50;;;;;;;10.40;7.60;;;;;;;-0.01;69.04;101231.44;107054;1250;60284;-70
2022/04/04 03:14:19;;;;;;;9.30;6.60;;;;;;;-0.05;67.96;101230.16;107130;1249;75350;-72
2022/04/04 03:16:48;;;;;;;10.50;7.60;;;;;;;-0.02;69.11;101232.48;107184;1249;72913;-73
2022/04/04 03:19:17;;;;;;;8.60;5.90;;;;;;;-0.01;67.90;101238.45;107022;1251;71279;-72
2022/04/04 03:21:46;;;;;;;13.30;7.40;;;;;;;-0.05;67.11;101231.17;107087;1249;72891;-72
2022/04/04 03:24:16;;;;;;;11.50;6.80;;;;;;;-0.06;67.42;101237.88;107078;1249;61125;-73
2022/04/04 03:26:45;;;;;;;12.10;7.40;;;;;;;-0.08;67.31;101238.42;107078;1249;59153;-72
2022/04/04 03:29:14;;;;;;;10.40;7.00;;;;;;;-0.12;67.31;101244.16;107164;1249;74070;-71
2022/04/04 03:31:43;;;;;;;12.70;7.50;;;;;;;-0.18;67.40;101243.77;107048;1249;72243;-72
2022/04/04 03:34:12;;;;;;;10.90;7.40;;;;;;;-0.21;67.63;101247.76;107488;1250;71487;-71
2022/04/04 03:36:41;;;;;;;12.90;7.60;;;;;;;-0.21;68.15;101250.16;107638;1248;71979;-71
2022/04/04 03:39:13;;;;;;;13.80;7.70;;;;;;;-0.26;68.28;101248.02;107632;1249;59638;-71
2022/04/04 03:41:45;;;;;;;14.10;7.70;;;;;;;-0.31;68.19;101251.20;107183;1251;59549;-73
2022/04/04 03:44:14;;;;;;;12.10;7.00;;;;;;;-0.37;68.54;101250.27;107404;1250;74502;-70
2022/04/04 03:46:43;;;;;;;11.80;7.90;;;;;;;-0.42;67.94;101248.66;107568;1249;72646;-72
2022/04/04 03:49:12;;;;;;;12.60;8.00;;;;;;;-0.47;68.46;101254.75;107263;1250;70228;-71
2022/04/04 03:51:41;;;;;;;12.30;7.90;;;;;;;-0.50;69.03;101259.27;107091;1250;72817;-71
2022/04/04 03:54:10;;;;;;;12.10;7.80;;;;;;;-0.58;69.18;101252.89;107249;1249;60514;-71
2022/04/04 03:56:39;;;;;;;13.20;7.30;;;;;;;-0.54;68.67;101265.64;107151;1250;61888;-70
2022/04/04 03:59:09;;;;;;;12.70;7.50;;;;;;;-0.56;68.70;101265.86;107325;1249;73927;-72
2022/04/04 04:01:39;;;;;;;11.60;7.60;;;;;;;-0.59;68.49;101263.69;107328;1250;71856;-71
2022/04/04 04:04:08;;;;;;;12.60;8.10;;;;;;;-0.60;67.71;101265.25;107356;1249;68676;-72
2022/04/04 04:06:37;;;;;;;11.50;7.20;;;;;;;-0.61;67.77;101269.20;107382;1249;72321;-72
2022/04/04 04:09:06;;;;;;;12.70;7.60;;;;;;;-0.59;68.30;101278.04;107312;1249;59617;-72
2022/04/04 04:11:35;;;;;;;13.30;7.60;;;;;;;-0.56;67.72;101279.21;107285;1249;59921;-71
2022/04/04 04:14:05;;;;;;;11.40;7.90;;;;;;;-0.55;67.57;101279.36;107291;1249;72533;-71
2022/04/04 04:16:34;;;;;;;13.30;6.80;;;;;;;-0.57;67.51;101282.65;107627;1249;70184;-71
2022/04/04 04:19:03;;;;;;;13.80;7.70;;;;;;;-0.56;67.58;101286.05;107398;1250;69556;-70
2022/04/04 04:21:32;;;;;;;14.50;8.20;;;;;;;-0.55;67.23;101287.91;107352;1251;71499;-72
2022/04/04 04:24:01;;;;;;;12.40;7.90;;;;;;;-0.52;67.61;101288.55;107349;1249;59651;-72
2022/04/04 04:26:30;;;;;;;11.70;8.00;;;;;;;-0.51;68.20;101290.92;107330;1250;59714;-70
2022/04/04 04:28:59;;;;;;;11.00;6.80;;;;;;;-0.56;68.28;101283.48;107410;1250;72724;-74
2022/04/04 04:31:28;;;;;;;13.00;7.90;;;;;;;-0.50;67.51;101297.94;107869;1250;70777;-73
2022/04/04 04:33:57;;;;;;;15.80;7.90;;;;;;;-0.48;67.09;101298.58;107415;1251;69466;-71
2022/04/04 04:36:27;;;;;;;13.70;8.60;;;;;;;-0.47;67.12;101304.89;107437;1249;72939;-72
2022/04/04 04:38:55;;;;;;;14.00;8.60;;;;;;;-0.49;67.43;101308.69;107145;1250;60051;-71
2022/04/04 04:41:27;;;;;;;15.30;9.20;;;;;;;-0.48;67.74;101306.45;106903;1252;60041;-71
2022/04/04 04:43:56;;;;;;;14.40;9.50;;;;;;;-0.44;68.18;101309.81;107321;1248;72753;-74
2022/04/04 04:46:25;;;;;;;12.00;8.70;;;;;;;-0.46;67.59;101314.61;107250;1250;69609;-73
2022/04/04 04:48:55;;;;;;;16.90;9.20;;;;;;;-0.43;67.73;101323.30;107433;1250;70737;-72
2022/04/04 04:51:24;;;;;;;14.00;8.60;;;;;;;-0.38;67.35;101325.09;107398;1250;74254;-73
2022/04/04 04:53:54;;;;;;;15.50;9.10;;;;;;;-0.27;67.52;101331.06;107513;1249;60767;-72
2022/04/04 04:56:25;;;;;;;15.60;9.80;;;;;;;-0.16;67.50;101332.77;107524;1249;61018;-72
2022/04/04 04:58:57;;;;;;;11.80;8.10;;;;;;;-0.06;66.83;101335.98;107690;1249;72355;-73
2022/04/04 05:01:26;;;;;;;14.30;9.20;;;;;;;0.02;65.81;101335.50;107730;1250;69940;-75
2022/04/04 05:03:55;;;;;;;15.10;8.90;;;;;;;0.08;65.16;101341.20;107375;1249;68228;-72
2022/04/04 05:06:24;;;;;;;15.50;9.80;;;;;;;0.13;64.79;101339.06;107415;1249;71269;-74
2022/04/04 05:08:55;;;;;;;15.80;8.80;;;;;;;0.17;64.67;101341.90;107726;1250;59616;-69
2022/04/04 05:11:24;;;;;;;11.50;7.70;;;;;;;0.20;64.36;101350.92;107288;1251;59551;-71
2022/04/04 05:13:53;;;;;;;14.20;8.70;;;;;;;0.22;63.84;101356.18;107617;1249;72583;-72
2022/04/04 05:16:28;;;;;;;14.20;8.70;;;;;;;0.24;64.50;101359.41;107238;1251;70176;-73
2022/04/04 05:18:57;;;;;;;13.40;8.50;;;;;;;0.26;64.87;101362.11;107336;1250;66972;-71
2022/04/04 05:21:26;;;;;;;12.20;9.00;;;;;;;0.26;63.35;101366.90;107353;1249;73010;-72
2022/04/04 05:23:55;;;;;;;12.60;8.40;;;;;;;0.27;63.42;101369.96;107391;1250;59627;-74
2022/04/04 05:26:24;;;;;;;12.80;9.10;;;;;;;0.26;63.73;101375.13;107507;1249;60550;-75
2022/04/04 05:28:54;;;;;;;17.90;8.90;;;;;;;0.31;63.37;101379.14;107496;1250;75145;-75
2022/04/04 05:31:27;;;;;;;12.90;8.30;;;;;;;0.42;63.56;101382.87;107446;1249;71405;-73
2022/04/04 05:33:58;;;;;;;17.00;8.30;;;;;;;0.60;64.31;101384.23;107352;1249;70302;-74
2022/04/04 05:36:28;;;;;;;20.50;11.00;;;;;;;0.83;63.60;101389.08;107243;1249;74008;-73
2022/04/04 05:38:58;;;;;;;15.50;8.70;;;;;;;0.97;63.28;101395.10;107252;1249;61876;-74
2022/04/04 05:41:30;;;;;;;15.00;8.10;;;;;;;1.10;61.86;101397.39;107361;1249;60376;-73
2022/04/04 05:43:59;;;;;;;11.10;7.80;;;;;;;1.21;60.28;101406.94;107279;1249;73095;-72
2022/04/04 05:46:28;;;;;;;13.00;8.70;;;;;;;1.29;59.36;101405.20;107291;1249;71978;-74
2022/04/04 05:48:57;;;;;;;15.80;8.30;;;;;;;1.32;59.13;101408.05;107319;1250;70180;-72
2022/04/04 05:51:28;;;;;;;11.40;7.50;;;;;;;1.43;58.60;101413.99;107213;1250;72009;-74
2022/04/04 05:54:18;;;;;;;8.10;6.10;;;;;;;1.50;58.13;101418.95;107351;1250;60216;-76
2022/04/04 05:56:47;;;;;;;13.60;8.50;;;;;;;1.45;56.83;101423.88;107666;1250;62210;-75
2022/04/04 05:59:19;;;;;;;15.50;9.10;;;;;;;1.43;57.52;101416.91;107258;1250;74272;-74
2022/04/04 06:01:48;;;;;;;12.00;8.30;;;;;;;1.47;58.29;101416.27;107359;1250;71536;-73
2022/04/04 06:04:17;;;;;;;11.20;7.60;;;;;;;1.54;57.49;101414.77;107339;1249;67934;-72
2022/04/04 06:06:47;;;;;;;13.90;8.80;;;;;;;1.56;57.31;101415.39;107063;1252;72340;-72
2022/04/04 06:09:16;;;;;;;13.70;7.50;;;;;;;1.53;58.19;101407.73;107049;1250;60578;-72
2022/04/04 06:11:46;;;;;;;14.70;7.40;;;;;;;1.65;57.52;101416.38;107245;1249;60538;-71
2022/04/04 06:14:15;;;;;;;13.70;8.30;;;;;;;1.73;56.84;101420.30;107368;1249;76199;-71
2022/04/04 06:16:44;;;;;;;15.40;9.00;;;;;;;1.72;56.95;101421.54;107527;1249;72359;-70
2022/04/04 06:19:16;;;;;;;13.60;9.80;;;;;;;1.70;57.53;101426.04;107256;1249;72117;-74
2022/04/04 06:21:45;;;;;;;11.90;7.70;;;;;;;1.80;58.39;101435.24;107247;1249;74745;-73
2022/04/04 06:24:15;;;;;;;14.00;8.70;;;;;;;1.75;57.26;101433.29;107080;1250;61165;-72
2022/04/04 06:26:44;;;;;;;14.40;8.60;;;;;;;1.90;57.33;101435.50;107333;1249;61326;-74
2022/04/04 06:29:13;;;;;;;14.80;8.80;;;;;;;1.89;57.39;101432.46;107122;1250;73451;-73
2022/04/04 06:31:48;;;;;;;13.90;8.50;;;;;;;1.95;57.05;101439.36;107182;1249;73250;-71
2022/04/04 06:34:19;;;;;;;14.90;9.20;;;;;;;1.91;56.99;101436.86;107227;1249;69577;-75
2022/04/04 06:36:48;;;;;;;10.80;7.20;;;;;;;1.92;56.75;101436.68;107124;1249;73765;-71
2022/04/04 06:39:19;;;;;;;12.40;8.60;;;;;;;1.90;57.05;101435.02;107055;1250;60273;-72
2022/04/04 06:41:48;;;;;;;14.20;9.20;;;;;;;1.93;56.66;101434.06;107199;1249;59955;-74
2022/04/04 06:44:17;;;;;;;12.60;9.40;;;;;;;1.87;56.81;101428.21;106950;1251;74929;-74
2022/04/04 06:46:51;;;;;;;10.30;6.40;;;;;;;1.85;57.44;101433.05;107039;1249;70961;-71
2022/04/04 06:49:21;;;;;;;15.60;8.10;;;;;;;1.88;56.44;101433.16;107565;1249;70900;-72
2022/04/04 06:51:51;;;;;;;13.40;9.10;;;;;;;1.91;55.37;101431.37;107255;1249;74306;-73
2022/04/04 06:54:20;;;;;;;13.10;8.30;;;;;;;1.85;55.80;101434.08;107276;1249;60262;-70
2022/04/04 06:56:49;;;;;;;11.80;7.40;;;;;;;1.86;56.71;101431.84;107063;1251;59783;-71
2022/04/04 06:59:18;;;;;;;15.40;10.20;;;;;;;1.94;56.96;101432.67;107062;1249;75001;-71
2022/04/04 07:01:49;;;;;;;13.50;8.10;;;;;;;2.02;57.34;101435.20;107124;1249;73006;-72
2022/04/04 07:04:19;;;;;;;15.30;9.90;;;;;;;2.21;55.79;101434.04;107122;1249;70171;-73
2022/04/04 07:06:48;;;;;;;16.40;10.50;;;;;;;2.32;55.48;101432.18;107197;1252;72500;-75
2022/04/04 07:09:17;;;;;;;13.80;7.10;;;;;;;2.39;55.57;101428.23;107226;1250;58218;-73
2022/04/04 07:11:48;;;;;;;15.00;8.80;;;;;;;2.59;53.91;101435.61;107001;1250;61396;-71
2022/04/04 07:14:18;;;;;;;11.60;7.90;;;;;;;2.57;53.15;101435.83;107230;1249;74424;-73
2022/04/04 07:16:51;;;;;;;10.80;7.70;;;;;;;2.56;52.25;101431.04;107072;1249;69986;-72
2022/04/04 07:19:22;;;;;;;;;;;;;;;2.77;51.43;101433.02;107282;1250;67957;-75
2022/04/04 07:21:52;;;;;;;11.80;7.00;;;;;;;2.79;48.28;101444.31;107092;1251;71309;-73
2022/04/04 07:24:21;;;;;;;10.70;7.20;;;;;;;2.88;49.69;101434.23;107273;1249;59653;-73
2022/04/04 07:26:53;;;;;;;13.10;8.60;;;;;;;2.99;50.47;101441.16;107209;1249;59554;-73
2022/04/04 07:29:23;;;;;;;11.60;7.90;;;;;;;3.17;49.49;101434.44;107286;1249;76161;-76
2022/04/04 07:31:52;;;;;;;7.40;5.70;;;;;;;3.29;48.94;101439.06;107419;1250;73362;-73
2022/04/04 07:34:22;;;;;;;7.40;4.50;;;;;;;3.46;44.25;101444.05;107371;1250;71575;-74
2022/04/04 07:36:51;;;;;;;9.10;4.80;;;;;;;3.40;42.42;101444.23;107456;1250;73153;-73
2022/04/04 07:39:20;;;;;;;7.80;5.30;;;;;;;3.45;43.22;101444.45;107472;1250;59733;-71
2022/04/04 07:41:49;;;;;;;8.90;6.20;;;;;;;3.45;43.48;101449.60;108394;1249;60301;-74
2022/04/04 07:44:19;;;;;;;12.30;7.10;;;;;;;3.47;43.25;101455.23;107449;1250;76435;-77
2022/04/04 07:46:48;;;;;;;9.00;6.00;;;;;;;3.40;43.86;101456.29;107784;1250;71806;-74
2022/04/04 07:49:17;;;;;;;9.50;6.30;;;;;;;3.39;44.18;101454.27;107274;1249;71352;-73
2022/04/04 07:51:47;;;;;;;9.20;5.80;;;;;;;3.43;45.43;101454.30;107303;1251;72395;-73
2022/04/04 07:54:16;;;;;;;6.70;5.10;;;;;;;3.41;43.77;101449.35;107422;1250;60815;-75
2022/04/04 07:56:45;;;;;;;10.50;6.80;;;;;;;3.56;43.67;101446.48;107493;1249;60715;-73
2022/04/04 07:59:13;;;;;;;9.80;6.30;;;;;;;3.53;42.87;101453.99;107336;1250;74375;-72
2022/04/04 08:01:42;;;;;;;8.40;5.80;;;;;;;3.62;43.19;101445.44;107324;1250;72667;-73
2022/04/04 08:04:12;;;;;;;10.70;6.90;;;;;;;3.82;43.13;101442.89;107158;1250;71444;-72
2022/04/04 08:06:41;;;;;;;9.30;5.60;;;;;;;3.89;42.45;101444.39;107939;1248;71110;-71
2022/04/04 08:09:10;;;;;;;10.50;6.50;;;;;;;4.01;43.43;101442.11;107731;1250;59618;-75
2022/04/04 08:11:40;;;;;;;10.30;6.60;;;;;;;4.09;44.34;101442.00;108195;1241;60294;-73
2022/04/04 08:14:08;;;;;;;9.70;6.60;;;;;;;4.12;42.71;101439.52;107135;1248;75462;-74
2022/04/04 08:16:38;;;;;;;9.50;5.70;;;;;;;4.23;42.99;101442.91;107111;1248;72843;-73
2022/04/04 08:19:07;;;;;;;9.80;6.20;;;;;;;4.29;43.40;101445.98;107276;1248;68648;-73
2022/04/04 08:21:36;;;;;;;10.70;5.90;;;;;;;4.30;42.55;101447.13;107072;1250;71658;-73
2022/04/04 08:24:06;;;;;;;9.20;6.50;;;;;;;4.40;42.99;101450.60;107032;1248;60604;-75
2022/04/04 08:26:37;;;;;;;10.00;7.30;;;;;;;4.41;41.73;101447.62;107267;1248;61277;-72
2022/04/04 08:29:10;;;;;;;9.40;6.10;;;;;;;4.75;41.56;101436.93;107462;1247;72970;-75
2022/04/04 08:31:40;;;;;;;9.20;6.00;;;;;;;4.89;41.97;101438.81;107542;1247;71941;-75
2022/04/04 08:34:10;;;;;;;8.30;5.90;;;;;;;4.95;42.08;101443.27;107660;1247;70969;-76
2022/04/04 08:36:41;;;;;;;6.20;4.40;;;;;;;5.01;42.24;101440.95;107486;1247;70782;-74
2022/04/04 08:39:10;;;;;;;10.10;6.30;;;;;;;4.93;41.16;101434.35;107494;1247;59630;-74
2022/04/04 08:41:40;;;;;;;8.30;6.60;;;;;;;5.00;42.22;101429.61;107507;1247;60585;-76
2022/04/04 08:44:08;;;;;;;8.90;6.00;;;;;;;4.97;42.09;101426.42;107533;1247;73485;-76
2022/04/04 08:46:39;;;;;;;11.50;7.00;;;;;;;4.93;42.61;101418.15;107435;1247;72638;-75
2022/04/04 08:49:08;;;;;;;7.10;4.20;;;;;;;5.09;41.93;101419.42;107387;1247;68228;-75
2022/04/04 08:51:38;;;;;;;9.70;6.70;;;;;;;5.23;40.19;101419.57;107285;1247;75011;-72
2022/04/04 08:54:07;;;;;;;8.20;5.90;;;;;;;5.07;42.42;101415.54;107318;1247;59743;-73
2022/04/04 08:56:36;;;;;;;11.70;6.60;;;;;;;5.17;41.70;101411.00;107311;1247;59712;-72
2022/04/04 08:59:05;;;;;;;11.70;6.70;;;;;;;5.06;41.98;101404.34;107402;1247;71441;-72
2022/04/04 09:01:34;;;;;;;12.10;7.10;;;;;;;5.10;43.12;101396.26;107342;1247;70391;-72
2022/04/04 09:04:24;;;;;;;9.60;6.50;;;;;;;5.21;43.13;101399.11;107336;1247;69991;-73
2022/04/04 09:06:57;;;;;;;11.20;6.40;;;;;;;5.23;42.06;101402.84;107275;1247;74890;-74
2022/04/04 09:09:45;;;;;;;11.20;7.90;;;;;;;5.17;42.39;101399.11;107861;1247;59822;-74
2022/04/04 09:12:22;;;;;;;11.20;6.70;;;;;;;5.00;41.95;101391.30;107412;1247;62527;-75
2022/04/04 09:14:57;;;;;;;11.00;6.70;;;;;;;5.08;41.59;101388.40;107791;1247;74276;-75
2022/04/04 09:17:29;;;;;;;10.00;7.40;;;;;;;5.59;41.84;101389.13;108197;1247;71143;-75
2022/04/04 09:19:58;;;;;;;9.70;7.10;;;;;;;5.63;42.41;101378.92;107307;1247;69540;-74
2022/04/04 09:22:27;;;;;;;7.70;4.70;;;;;;;5.68;43.11;101379.23;107320;1247;74019;-75
2022/04/04 09:25:02;;;;;;;11.90;6.60;;;;;;;5.88;41.07;101370.14;107207;1247;60720;-75
2022/04/04 09:27:37;;;;;;;7.50;4.80;;;;;;;5.77;40.94;101368.50;107182;1247;62161;-72
2022/04/04 09:30:19;;;;;;;10.30;6.60;;;;;;;5.88;40.92;101364.58;107290;1247;76338;-73
2022/04/04 09:32:51;;;;;;;13.30;6.80;;;;;;;5.81;41.92;101366.94;107799;1247;73266;-75
2022/04/04 09:35:21;;;;;;;9.60;7.40;;;;;;;6.01;41.37;101358.86;107755;1247;72483;-73
2022/04/04 09:37:50;;;;;;;13.20;7.70;;;;;;;6.05;40.86;101360.23;107633;1247;76117;-73
2022/04/04 09:40:24;;;;;;;6.30;4.20;;;;;;;6.16;40.75;101354.59;107282;1248;61333;-69
2022/04/04 09:42:53;;;;;;;11.30;7.00;;;;;;;6.24;40.27;101358.42;107576;1247;59479;-73
2022/04/04 09:45:28;;;;;;;8.20;5.30;;;;;;;6.27;41.12;101350.31;107486;1247;75273;-73
2022/04/04 09:48:07;;;;;;;9.50;5.30;;;;;;;6.39;39.84;101344.92;107241;1249;70052;-72
2022/04/04 09:50:47;;;;;;;8.10;5.20;;;;;;;6.28;39.90;101348.71;107416;1247;68326;-73
2022/04/04 09:53:28;;;;;;;9.70;7.40;;;;;;;6.34;38.85;101348.41;107417;1247;73969;-71
2022/04/04 09:56:00;;;;;;;12.20;7.10;;;;;;;6.41;39.10;101343.45;107538;1248;59589;-72
2022/04/04 09:58:31;;;;;;;9.90;6.50;;;;;;;6.39;40.51;101338.84;107624;1247;61186;-72
2022/04/04 10:01:01;;;;;;;9.70;6.30;;;;;;;6.69;40.45;101333.70;107565;1248;72526;-72
2022/04/04 10:03:31;;;;;;;6.40;4.60;;;;;;;6.87;39.25;101334.91;107435;1247;70286;-73
2022/04/04 10:06:06;;;;;;;8.20;5.50;;;;;;;6.77;38.91;101335.93;107290;1247;70678;-74
2022/04/04 10:08:38;;;;;;;9.50;5.10;;;;;;;6.55;39.55;101333.11;107619;1247;72954;-75
2022/04/04 10:11:10;;;;;;;11.80;6.60;;;;;;;6.60;40.36;101328.55;107746;1247;59891;-73
2022/04/04 10:13:43;;;;;;;10.50;7.40;;;;;;;6.79;40.46;101332.90;107856;1247;61271;-73
2022/04/04 10:16:13;;;;;;;8.80;6.00;;;;;;;6.91;40.91;101329.55;107846;1247;73474;-74
2022/04/04 10:18:43;;;;;;;12.60;7.30;;;;;;;7.22;39.23;101326.32;107638;1247;72258;-74
2022/04/04 10:21:13;;;;;;;9.80;6.60;;;;;;;7.11;40.52;101324.43;107518;1249;70838;-75
2022/04/04 10:23:46;;;;;;;10.50;6.30;;;;;;;7.23;39.75;101319.35;107537;1247;73906;-72
2022/04/04 10:26:20;;;;;;;10.30;7.40;;;;;;;7.18;40.42;101319.59;107247;1247;63650;-73
2022/04/04 10:28:49;;;;;;;10.80;7.00;;;;;;;7.20;40.66;101317.42;107566;1247;63206;-74
2022/04/04 10:31:28;;;;;;;9.40;6.30;;;;;;;7.27;40.24;101317.27;107499;1247;76147;-73
2022/04/04 10:34:11;;;;;;;11.10;7.50;;;;;;;7.28;39.77;101315.83;107578;1247;73477;-75
2022/04/04 10:36:59;;;;;;;12.10;8.40;;;;;;;7.41;40.48;101309.64;107486;1247;70194;-75
2022/04/04 10:39:48;;;;;;;16.60;8.50;;;;;;;7.58;41.61;101304.60;107485;1247;75257;-74
2022/04/04 10:42:41;;;;;;;10.40;7.50;;;;;;;7.77;40.65;101300.52;107472;1248;60052;-75
2022/04/04 10:45:18;;;;;;;11.20;7.50;;;;;;;7.98;39.05;101300.64;107389;1248;62393;-74
2022/04/04 10:47:48;;;;;;;10.80;8.10;;;;;;;8.05;39.94;101290.05;107442;1247;75476;-75
2022/04/04 10:50:30;;;;;;;12.50;8.30;;;;;;;7.67;39.05;101285.61;107583;1247;72087;-74
2022/04/04 10:53:02;;;;;;;11.00;7.80;;;;;;;8.17;40.01;101281.46;107474;1247;69238;-73
2022/04/04 10:55:37;;;;;;;10.20;7.40;;;;;;;8.08;39.34;101279.70;107416;1249;72376;-73
2022/04/04 10:58:19;;;;;;;11.20;7.40;;;;;;;8.09;37.75;101273.57;107457;1247;59598;-73
2022/04/04 11:01:18;;;;;;;11.10;7.10;;;;;;;8.34;38.56;101272.20;107443;1248;60181;-73
2022/04/04 11:03:51;;;;;;;10.30;7.60;;;;;;;8.19;38.68;101266.23;107662;1247;74262;-71
2022/04/04 11:09:32;;;;;;;9.00;6.70;;;;;;;8.15;37.05;101261.57;107493;1247;70084;-73
2022/04/04 11:12:08;;;;;;;11.10;6.40;;;;;;;8.01;37.59;101260.80;107497;1247;71392;-74
2022/04/04 11:14:39;;;;;;;12.60;7.00;;;;;;;8.11;36.26;101258.33;107429;1249;58913;-73
2022/04/04 11:17:08;;;;;;;10.40;7.00;;;;;;;7.38;37.32;101255.73;107486;1247;58914;-76
2022/04/04 11:20:31;;;;;;;9.50;7.00;;;;;;;7.83;38.43;101249.94;107552;1247;72336;-76
2022/04/04 11:23:10;;;;;;;11.90;7.60;;;;;;;8.20;35.78;101249.02;107397;1247;69668;-74
2022/04/04 11:25:52;;;;;;;9.40;6.80;;;;;;;8.02;36.79;101246.54;107750;1247;68167;-75
2022/04/04 11:28:31;;;;;;;11.80;7.60;;;;;;;7.86;38.08;101249.77;107403;1248;71371;-73
2022/04/04 11:31:09;;;;;;;12.80;7.60;;;;;;;7.82;38.65;101248.45;107540;1247;59549;-75
2022/04/04 11:33:51;;;;;;;8.30;5.00;;;;;;;7.79;39.00;101242.00;107572;1248;60748;-72
2022/04/04 11:36:27;;;;;;;12.80;8.00;;;;;;;7.97;37.56;101240.20;107484;1249;73174;-76
2022/04/04 11:39:03;;;;;;;11.90;7.50;;;;;;;7.74;38.14;101240.35;107644;1247;71636;-74